sensor_id;sensor_type;location;lat;lon;timestamp;pressure;altitude;pressure_sealevel;temperature;humidity
74524;BME280;63074;44.696;10.358;2023-10-19T00:00:49;99450.00;;;17.46;100.00
74524;BME280;63074;44.696;10.358;2023-10-19T00:03:19;99448.84;;;17.52;100.00
74524;BME280;63074;44.696;10.358;2023-10-19T00:05:46;99446.88;;;17.02;100.00
74524;BME280;63074;44.696;10.358;2023-10-19T00:08:13;99433.34;;;17.34;100.00
74524;BME280;63074;44.696;10.358;2023-10-19T00:10:44;99444.38;;;17.43;100.00
74524;BME280;63074;44.696;10.358;2023-10-19T00:13:14;99442.31;;;17.35;100.00
74524;BME280;63074;44.696;10.358;2023-10-19T00:15:42;99420.88;;;17.52;100.00
74524;BME280;63074;44.696;10.358;2023-10-19T00:18:19;99430.63;;;17.34;100.00
74524;BME280;63074;44.696;10.358;2023-10-19T00:20:51;99450.56;;;17.30;100.00
74524;BME280;63074;44.696;10.358;2023-10-19T00:23:36;99445.03;;;17.35;100.00
74524;BME280;63074;44.696;10.358;2023-10-19T00:26:05;99422.34;;;17.44;100.00
74524;BME280;63074;44.696;10.358;2023-10-19T00:28:36;99414.97;;;17.31;100.00
74524;BME280;63074;44.696;10.358;2023-10-19T00:31:04;99416.03;;;17.11;100.00
74524;BME280;63074;44.696;10.358;2023-10-19T00:33:34;99411.72;;;17.10;100.00
74524;BME280;63074;44.696;10.358;2023-10-19T00:36:05;99421.56;;;17.25;100.00
74524;BME280;63074;44.696;10.358;2023-10-19T00:38:38;99406.47;;;17.33;100.00
74524;BME280;63074;44.696;10.358;2023-10-19T00:41:06;99400.91;;;17.43;100.00
74524;BME280;63074;44.696;10.358;2023-10-19T00:43:33;99399.59;;;17.40;100.00
74524;BME280;63074;44.696;10.358;2023-10-19T00:46:19;99400.56;;;17.63;100.00
74524;BME280;63074;44.696;10.358;2023-10-19T00:48:51;99382.16;;;17.60;100.00
74524;BME280;63074;44.696;10.358;2023-10-19T00:51:22;99388.19;;;17.57;100.00
74524;BME280;63074;44.696;10.358;2023-10-19T00:54:04;99382.09;;;17.46;100.00
74524;BME280;63074;44.696;10.358;2023-10-19T00:56:35;99379.63;;;17.64;100.00
74524;BME280;63074;44.696;10.358;2023-10-19T00:59:03;99367.25;;;17.58;100.00
74524;BME280;63074;44.696;10.358;2023-10-19T01:01:46;99345.75;;;17.29;100.00
74524;BME280;63074;44.696;10.358;2023-10-19T01:04:15;99335.63;;;17.15;100.00
74524;BME280;63074;44.696;10.358;2023-10-19T01:06:48;99339.66;;;17.18;100.00
74524;BME280;63074;44.696;10.358;2023-10-19T01:09:32;99328.25;;;17.02;100.00
74524;BME280;63074;44.696;10.358;2023-10-19T01:12:03;99336.06;;;17.04;100.00
74524;BME280;63074;44.696;10.358;2023-10-19T01:15:07;99335.88;;;17.33;100.00
74524;BME280;63074;44.696;10.358;2023-10-19T01:17:43;99342.34;;;17.37;100.00
74524;BME280;63074;44.696;10.358;2023-10-19T01:20:15;99352.44;;;17.50;100.00
74524;BME280;63074;44.696;10.358;2023-10-19T01:23:05;99334.84;;;16.96;100.00
74524;BME280;63074;44.696;10.358;2023-10-19T01:28:06;99330.34;;;17.05;100.00
74524;BME280;63074;44.696;10.358;2023-10-19T01:30:33;99332.72;;;16.93;100.00
74524;BME280;63074;44.696;10.358;2023-10-19T01:33:00;99341.31;;;17.33;100.00
74524;BME280;63074;44.696;10.358;2023-10-19T01:35:26;99323.53;;;17.27;100.00
74524;BME280;63074;44.696;10.358;2023-10-19T01:37:53;99324.78;;;17.15;100.00
74524;BME280;63074;44.696;10.358;2023-10-19T01:40:19;99325.44;;;17.40;100.00
74524;BME280;63074;44.696;10.358;2023-10-19T01:42:47;99306.56;;;17.48;100.00
74524;BME280;63074;44.696;10.358;2023-10-19T01:45:13;99300.59;;;17.00;100.00
74524;BME280;63074;44.696;10.358;2023-10-19T01:47:40;99315.94;;;16.91;100.00
74524;BME280;63074;44.696;10.358;2023-10-19T01:50:09;99296.09;;;17.09;100.00
74524;BME280;63074;44.696;10.358;2023-10-19T01:52:45;99301.28;;;17.25;100.00
74524;BME280;63074;44.696;10.358;2023-10-19T01:55:12;99301.06;;;17.21;100.00
74524;BME280;63074;44.696;10.358;2023-10-19T01:57:38;99291.97;;;17.31;100.00
74524;BME280;63074;44.696;10.358;2023-10-19T02:00:06;99275.66;;;17.31;100.00
74524;BME280;63074;44.696;10.358;2023-10-19T02:02:37;99265.19;;;17.24;100.00
74524;BME280;63074;44.696;10.358;2023-10-19T02:05:03;99254.63;;;17.36;100.00
74524;BME280;63074;44.696;10.358;2023-10-19T02:07:31;99260.19;;;17.31;100.00
74524;BME280;63074;44.696;10.358;2023-10-19T02:09:58;99265.50;;;17.36;100.00
74524;BME280;63074;44.696;10.358;2023-10-19T02:12:25;99272.16;;;17.44;100.00
74524;BME280;63074;44.696;10.358;2023-10-19T02:14:51;99259.16;;;17.41;100.00
74524;BME280;63074;44.696;10.358;2023-10-19T02:17:17;99254.34;;;17.05;100.00
74524;BME280;63074;44.696;10.358;2023-10-19T02:19:44;99259.69;;;17.43;100.00
74524;BME280;63074;44.696;10.358;2023-10-19T02:22:10;99249.91;;;17.42;100.00
74524;BME280;63074;44.696;10.358;2023-10-19T02:24:38;99241.44;;;17.16;100.00
74524;BME280;63074;44.696;10.358;2023-10-19T02:27:05;99242.75;;;17.78;100.00
74524;BME280;63074;44.696;10.358;2023-10-19T02:29:31;99230.91;;;17.28;100.00
74524;BME280;63074;44.696;10.358;2023-10-19T02:31:57;99245.78;;;17.31;100.00
74524;BME280;63074;44.696;10.358;2023-10-19T02:34:30;99234.34;;;17.47;100.00
74524;BME280;63074;44.696;10.358;2023-10-19T02:36:56;99235.03;;;17.39;100.00
74524;BME280;63074;44.696;10.358;2023-10-19T02:39:22;99231.75;;;17.56;100.00
74524;BME280;63074;44.696;10.358;2023-10-19T02:41:54;99210.00;;;17.42;100.00
74524;BME280;63074;44.696;10.358;2023-10-19T02:44:21;99212.34;;;16.33;100.00
74524;BME280;63074;44.696;10.358;2023-10-19T02:46:52;99217.56;;;16.99;100.00
74524;BME280;63074;44.696;10.358;2023-10-19T02:49:24;99226.50;;;17.32;100.00
74524;BME280;63074;44.696;10.358;2023-10-19T02:51:53;99216.94;;;17.48;100.00
74524;BME280;63074;44.696;10.358;2023-10-19T02:54:24;99213.22;;;17.58;100.00
74524;BME280;63074;44.696;10.358;2023-10-19T02:56:52;99215.84;;;17.49;100.00
74524;BME280;63074;44.696;10.358;2023-10-19T02:59:21;99202.31;;;17.03;100.00
74524;BME280;63074;44.696;10.358;2023-10-19T03:01:54;99195.78;;;17.18;100.00
74524;BME280;63074;44.696;10.358;2023-10-19T03:04:27;99200.63;;;17.21;100.00
74524;BME280;63074;44.696;10.358;2023-10-19T03:06:56;99196.50;;;17.37;100.00
74524;BME280;63074;44.696;10.358;2023-10-19T03:09:23;99192.88;;;17.42;100.00
74524;BME280;63074;44.696;10.358;2023-10-19T03:11:55;99176.91;;;17.40;100.00
74524;BME280;63074;44.696;10.358;2023-10-19T03:14:26;99178.59;;;17.36;100.00
74524;BME280;63074;44.696;10.358;2023-10-19T03:16:53;99178.19;;;17.02;100.00
74524;BME280;63074;44.696;10.358;2023-10-19T03:19:23;99185.09;;;17.08;100.00
74524;BME280;63074;44.696;10.358;2023-10-19T03:21:52;99172.97;;;17.33;100.00
74524;BME280;63074;44.696;10.358;2023-10-19T03:24:21;99178.72;;;17.31;100.00
74524;BME280;63074;44.696;10.358;2023-10-19T03:27:11;99196.41;;;16.82;100.00
74524;BME280;63074;44.696;10.358;2023-10-19T03:29:45;99194.00;;;16.62;100.00
74524;BME280;63074;44.696;10.358;2023-10-19T03:32:12;99182.38;;;16.94;100.00
74524;BME280;63074;44.696;10.358;2023-10-19T03:34:39;99167.22;;;17.34;100.00
74524;BME280;63074;44.696;10.358;2023-10-19T03:37:09;99163.53;;;17.30;100.00
74524;BME280;63074;44.696;10.358;2023-10-19T03:39:38;99171.44;;;17.13;100.00
74524;BME280;63074;44.696;10.358;2023-10-19T03:42:05;99160.19;;;17.19;100.00
74524;BME280;63074;44.696;10.358;2023-10-19T03:44:34;99152.06;;;17.19;100.00
74524;BME280;63074;44.696;10.358;2023-10-19T03:47:16;99142.53;;;16.57;100.00
74524;BME280;63074;44.696;10.358;2023-10-19T03:49:49;99132.25;;;17.46;100.00
74524;BME280;63074;44.696;10.358;2023-10-19T03:52:16;99130.59;;;16.91;100.00
74524;BME280;63074;44.696;10.358;2023-10-19T03:54:42;99142.00;;;17.47;100.00
74524;BME280;63074;44.696;10.358;2023-10-19T03:57:11;99140.00;;;17.67;100.00
74524;BME280;63074;44.696;10.358;2023-10-19T03:59:41;99136.16;;;17.68;100.00
74524;BME280;63074;44.696;10.358;2023-10-19T04:02:10;99148.44;;;17.38;100.00
74524;BME280;63074;44.696;10.358;2023-10-19T04:04:43;99147.84;;;17.68;100.00
74524;BME280;63074;44.696;10.358;2023-10-19T04:07:13;99148.94;;;17.53;100.00
74524;BME280;63074;44.696;10.358;2023-10-19T04:09:53;99140.69;;;17.59;100.00
74524;BME280;63074;44.696;10.358;2023-10-19T04:12:30;99139.59;;;17.18;100.00
74524;BME280;63074;44.696;10.358;2023-10-19T04:14:57;99134.97;;;17.60;100.00
74524;BME280;63074;44.696;10.358;2023-10-19T04:17:23;99143.59;;;17.90;100.00
74524;BME280;63074;44.696;10.358;2023-10-19T04:19:53;99151.66;;;17.67;100.00
74524;BME280;63074;44.696;10.358;2023-10-19T04:22:20;99146.31;;;17.21;100.00
74524;BME280;63074;44.696;10.358;2023-10-19T04:24:51;99141.19;;;17.61;100.00
74524;BME280;63074;44.696;10.358;2023-10-19T04:27:17;99134.75;;;17.70;100.00
74524;BME280;63074;44.696;10.358;2023-10-19T04:29:47;99117.56;;;17.61;100.00
74524;BME280;63074;44.696;10.358;2023-10-19T04:32:15;99111.00;;;17.35;100.00
74524;BME280;63074;44.696;10.358;2023-10-19T04:34:49;99117.97;;;17.00;100.00
74524;BME280;63074;44.696;10.358;2023-10-19T04:37:15;99119.56;;;17.14;100.00
74524;BME280;63074;44.696;10.358;2023-10-19T04:39:45;99121.38;;;17.46;100.00
74524;BME280;63074;44.696;10.358;2023-10-19T04:42:11;99128.88;;;17.63;100.00
74524;BME280;63074;44.696;10.358;2023-10-19T04:44:38;99125.59;;;17.39;100.00
74524;BME280;63074;44.696;10.358;2023-10-19T04:47:04;99113.22;;;17.60;100.00
74524;BME280;63074;44.696;10.358;2023-10-19T04:49:30;99103.47;;;17.59;100.00
74524;BME280;63074;44.696;10.358;2023-10-19T04:51:56;99111.41;;;17.55;100.00
74524;BME280;63074;44.696;10.358;2023-10-19T04:54:22;99113.72;;;17.48;100.00
74524;BME280;63074;44.696;10.358;2023-10-19T04:56:49;99115.94;;;17.46;100.00
74524;BME280;63074;44.696;10.358;2023-10-19T04:59:18;99109.19;;;17.44;100.00
74524;BME280;63074;44.696;10.358;2023-10-19T05:01:44;99102.34;;;17.33;100.00
74524;BME280;63074;44.696;10.358;2023-10-19T05:04:11;99100.56;;;17.14;100.00
74524;BME280;63074;44.696;10.358;2023-10-19T05:06:38;99102.06;;;17.34;100.00
74524;BME280;63074;44.696;10.358;2023-10-19T05:09:05;99093.53;;;17.27;100.00
74524;BME280;63074;44.696;10.358;2023-10-19T05:11:32;99097.56;;;17.30;100.00
74524;BME280;63074;44.696;10.358;2023-10-19T05:13:58;99103.50;;;17.32;100.00
74524;BME280;63074;44.696;10.358;2023-10-19T05:16:24;99102.06;;;17.34;100.00
74524;BME280;63074;44.696;10.358;2023-10-19T05:18:50;99099.34;;;17.48;100.00
74524;BME280;63074;44.696;10.358;2023-10-19T05:21:16;99092.50;;;17.50;100.00
74524;BME280;63074;44.696;10.358;2023-10-19T05:23:42;99084.88;;;17.52;100.00
74524;BME280;63074;44.696;10.358;2023-10-19T05:26:09;99083.75;;;17.67;100.00
74524;BME280;63074;44.696;10.358;2023-10-19T05:28:35;99074.13;;;17.06;100.00
74524;BME280;63074;44.696;10.358;2023-10-19T05:31:01;99070.38;;;17.43;100.00
74524;BME280;63074;44.696;10.358;2023-10-19T05:33:28;99072.78;;;17.45;100.00
74524;BME280;63074;44.696;10.358;2023-10-19T05:35:55;99076.91;;;17.42;100.00
74524;BME280;63074;44.696;10.358;2023-10-19T05:38:21;99067.28;;;16.81;100.00
74524;BME280;63074;44.696;10.358;2023-10-19T05:40:48;99067.97;;;17.42;100.00
74524;BME280;63074;44.696;10.358;2023-10-19T05:43:16;99073.88;;;16.75;100.00
74524;BME280;63074;44.696;10.358;2023-10-19T05:45:43;99075.94;;;17.11;100.00
74524;BME280;63074;44.696;10.358;2023-10-19T05:48:09;99070.22;;;16.99;100.00
74524;BME280;63074;44.696;10.358;2023-10-19T05:50:37;99064.19;;;17.02;100.00
74524;BME280;63074;44.696;10.358;2023-10-19T05:53:04;99054.19;;;17.38;100.00
74524;BME280;63074;44.696;10.358;2023-10-19T05:55:31;99049.34;;;17.49;100.00
74524;BME280;63074;44.696;10.358;2023-10-19T05:57:58;99067.78;;;17.25;100.00
74524;BME280;63074;44.696;10.358;2023-10-19T06:00:24;99071.78;;;17.41;100.00
74524;BME280;63074;44.696;10.358;2023-10-19T06:02:54;99060.59;;;17.70;100.00
74524;BME280;63074;44.696;10.358;2023-10-19T06:05:20;99071.97;;;17.58;100.00
74524;BME280;63074;44.696;10.358;2023-10-19T06:07:48;99072.59;;;17.55;100.00
74524;BME280;63074;44.696;10.358;2023-10-19T06:10:17;99078.22;;;17.59;100.00
74524;BME280;63074;44.696;10.358;2023-10-19T06:12:44;99081.13;;;17.48;100.00
74524;BME280;63074;44.696;10.358;2023-10-19T06:15:12;99075.59;;;17.40;100.00
74524;BME280;63074;44.696;10.358;2023-10-19T06:17:40;99077.09;;;17.60;100.00
74524;BME280;63074;44.696;10.358;2023-10-19T06:20:10;99076.16;;;17.64;100.00
74524;BME280;63074;44.696;10.358;2023-10-19T06:22:51;99074.06;;;17.75;100.00
74524;BME280;63074;44.696;10.358;2023-10-19T06:25:20;99076.13;;;17.92;100.00
74524;BME280;63074;44.696;10.358;2023-10-19T06:27:48;99074.72;;;17.94;100.00
74524;BME280;63074;44.696;10.358;2023-10-19T06:30:15;99072.00;;;17.94;100.00
74524;BME280;63074;44.696;10.358;2023-10-19T06:32:52;99075.91;;;17.52;100.00
74524;BME280;63074;44.696;10.358;2023-10-19T06:35:19;99078.72;;;17.61;100.00
74524;BME280;63074;44.696;10.358;2023-10-19T06:37:46;99081.03;;;17.40;100.00
74524;BME280;63074;44.696;10.358;2023-10-19T06:40:14;99070.47;;;17.66;100.00
74524;BME280;63074;44.696;10.358;2023-10-19T06:42:46;99066.97;;;17.10;100.00
74524;BME280;63074;44.696;10.358;2023-10-19T06:45:14;99065.56;;;17.40;100.00
74524;BME280;63074;44.696;10.358;2023-10-19T06:47:48;99058.88;;;17.74;100.00
74524;BME280;63074;44.696;10.358;2023-10-19T06:50:18;99051.50;;;17.88;100.00
74524;BME280;63074;44.696;10.358;2023-10-19T06:52:46;99054.22;;;17.88;100.00
74524;BME280;63074;44.696;10.358;2023-10-19T06:55:14;99044.06;;;17.80;100.00
74524;BME280;63074;44.696;10.358;2023-10-19T06:57:52;99049.66;;;17.47;100.00
74524;BME280;63074;44.696;10.358;2023-10-19T07:00:21;99057.69;;;17.66;100.00
74524;BME280;63074;44.696;10.358;2023-10-19T07:02:51;99057.78;;;17.75;100.00
74524;BME280;63074;44.696;10.358;2023-10-19T07:05:18;99057.00;;;17.61;100.00
74524;BME280;63074;44.696;10.358;2023-10-19T07:07:47;99054.72;;;17.90;100.00
74524;BME280;63074;44.696;10.358;2023-10-19T07:10:14;99046.00;;;18.24;100.00
74524;BME280;63074;44.696;10.358;2023-10-19T07:12:46;99029.94;;;18.14;100.00
74524;BME280;63074;44.696;10.358;2023-10-19T07:15:13;99031.34;;;17.53;100.00
74524;BME280;63074;44.696;10.358;2023-10-19T07:17:43;99042.19;;;17.67;100.00
74524;BME280;63074;44.696;10.358;2023-10-19T07:20:11;99042.84;;;18.08;100.00
74524;BME280;63074;44.696;10.358;2023-10-19T07:22:58;99050.00;;;18.27;100.00
74524;BME280;63074;44.696;10.358;2023-10-19T07:25:57;99038.63;;;18.25;100.00
74524;BME280;63074;44.696;10.358;2023-10-19T07:28:26;99035.13;;;18.02;100.00
74524;BME280;63074;44.696;10.358;2023-10-19T07:30:53;99028.97;;;17.87;100.00
74524;BME280;63074;44.696;10.358;2023-10-19T07:33:19;99013.59;;;18.36;100.00
74524;BME280;63074;44.696;10.358;2023-10-19T07:35:47;99010.94;;;18.22;100.00
74524;BME280;63074;44.696;10.358;2023-10-19T07:38:16;99024.06;;;17.76;100.00
74524;BME280;63074;44.696;10.358;2023-10-19T07:40:43;99039.25;;;17.63;100.00
74524;BME280;63074;44.696;10.358;2023-10-19T07:43:10;99034.94;;;18.20;100.00
74524;BME280;63074;44.696;10.358;2023-10-19T07:45:36;99033.38;;;18.28;100.00
74524;BME280;63074;44.696;10.358;2023-10-19T07:48:03;99032.53;;;18.19;100.00
74524;BME280;63074;44.696;10.358;2023-10-19T07:50:37;99032.03;;;17.95;100.00
74524;BME280;63074;44.696;10.358;2023-10-19T07:53:04;99038.84;;;18.06;100.00
74524;BME280;63074;44.696;10.358;2023-10-19T07:55:30;99048.56;;;18.51;100.00
74524;BME280;63074;44.696;10.358;2023-10-19T07:57:59;99040.25;;;18.56;100.00
74524;BME280;63074;44.696;10.358;2023-10-19T08:00:26;99052.03;;;18.66;100.00
74524;BME280;63074;44.696;10.358;2023-10-19T08:02:55;99044.59;;;18.58;100.00
74524;BME280;63074;44.696;10.358;2023-10-19T08:05:22;99040.34;;;18.65;100.00
74524;BME280;63074;44.696;10.358;2023-10-19T08:07:48;99033.91;;;18.61;100.00
74524;BME280;63074;44.696;10.358;2023-10-19T08:10:16;99031.75;;;18.80;100.00
74524;BME280;63074;44.696;10.358;2023-10-19T08:12:43;99021.94;;;17.73;100.00
74524;BME280;63074;44.696;10.358;2023-10-19T08:15:13;99022.25;;;18.38;100.00
74524;BME280;63074;44.696;10.358;2023-10-19T08:17:46;99016.41;;;18.84;100.00
74524;BME280;63074;44.696;10.358;2023-10-19T08:20:14;99009.00;;;18.68;100.00
74524;BME280;63074;44.696;10.358;2023-10-19T08:22:51;98999.44;;;18.87;100.00
74524;BME280;63074;44.696;10.358;2023-10-19T08:25:18;98999.84;;;19.12;100.00
74524;BME280;63074;44.696;10.358;2023-10-19T08:27:45;98989.06;;;18.89;100.00
74524;BME280;63074;44.696;10.358;2023-10-19T08:30:15;98986.50;;;18.93;100.00
74524;BME280;63074;44.696;10.358;2023-10-19T08:32:44;98986.19;;;18.95;100.00
74524;BME280;63074;44.696;10.358;2023-10-19T08:35:15;98987.16;;;19.07;100.00
74524;BME280;63074;44.696;10.358;2023-10-19T08:37:42;98985.41;;;19.03;100.00
74524;BME280;63074;44.696;10.358;2023-10-19T08:40:11;98995.31;;;18.90;100.00
74524;BME280;63074;44.696;10.358;2023-10-19T08:42:47;98991.00;;;18.98;100.00
74524;BME280;63074;44.696;10.358;2023-10-19T08:45:14;98974.56;;;19.37;100.00
74524;BME280;63074;44.696;10.358;2023-10-19T08:47:55;98997.97;;;18.81;100.00
74524;BME280;63074;44.696;10.358;2023-10-19T08:50:34;99005.59;;;18.62;100.00
74524;BME280;63074;44.696;10.358;2023-10-19T08:53:04;98993.47;;;18.77;100.00
74524;BME280;63074;44.696;10.358;2023-10-19T08:55:32;98985.63;;;18.67;100.00
74524;BME280;63074;44.696;10.358;2023-10-19T08:58:01;98966.84;;;19.13;100.00
74524;BME280;63074;44.696;10.358;2023-10-19T09:00:27;98983.22;;;19.31;100.00
74524;BME280;63074;44.696;10.358;2023-10-19T09:02:54;98994.88;;;19.14;100.00
74524;BME280;63074;44.696;10.358;2023-10-19T09:05:22;98994.25;;;19.17;100.00
74524;BME280;63074;44.696;10.358;2023-10-19T09:07:49;98977.63;;;19.27;100.00
74524;BME280;63074;44.696;10.358;2023-10-19T09:10:25;98955.66;;;19.49;100.00
74524;BME280;63074;44.696;10.358;2023-10-19T09:13:03;98940.28;;;19.71;100.00
74524;BME280;63074;44.696;10.358;2023-10-19T09:15:30;98925.72;;;19.75;100.00
74524;BME280;63074;44.696;10.358;2023-10-19T09:20:47;98901.19;;;19.32;100.00
74524;BME280;63074;44.696;10.358;2023-10-19T09:23:28;98922.50;;;19.65;100.00
74524;BME280;63074;44.696;10.358;2023-10-19T09:25:58;98938.53;;;19.75;100.00
74524;BME280;63074;44.696;10.358;2023-10-19T09:28:25;98953.09;;;19.18;100.00
74524;BME280;63074;44.696;10.358;2023-10-19T09:30:51;98951.88;;;19.59;100.00
74524;BME280;63074;44.696;10.358;2023-10-19T09:33:18;98946.88;;;19.78;100.00
74524;BME280;63074;44.696;10.358;2023-10-19T09:35:48;98948.75;;;20.12;100.00
74524;BME280;63074;44.696;10.358;2023-10-19T09:38:18;98945.53;;;20.10;100.00
74524;BME280;63074;44.696;10.358;2023-10-19T09:40:54;98941.25;;;19.83;100.00
74524;BME280;63074;44.696;10.358;2023-10-19T09:43:35;98940.13;;;19.67;100.00
74524;BME280;63074;44.696;10.358;2023-10-19T09:46:10;98942.38;;;19.31;100.00
74524;BME280;63074;44.696;10.358;2023-10-19T09:48:46;98941.09;;;18.01;100.00
74524;BME280;63074;44.696;10.358;2023-10-19T09:51:14;98934.78;;;18.45;100.00
74524;BME280;63074;44.696;10.358;2023-10-19T09:53:48;98934.81;;;19.10;100.00
74524;BME280;63074;44.696;10.358;2023-10-19T09:56:26;98945.88;;;19.40;100.00
74524;BME280;63074;44.696;10.358;2023-10-19T09:59:01;98938.72;;;19.61;100.00
74524;BME280;63074;44.696;10.358;2023-10-19T10:01:28;98928.44;;;19.49;100.00
74524;BME280;63074;44.696;10.358;2023-10-19T10:03:54;98931.31;;;19.27;100.00
74524;BME280;63074;44.696;10.358;2023-10-19T10:06:30;98934.69;;;19.50;100.00
74524;BME280;63074;44.696;10.358;2023-10-19T10:08:59;98920.94;;;19.55;100.00
74524;BME280;63074;44.696;10.358;2023-10-19T10:11:27;98924.84;;;18.88;100.00
74524;BME280;63074;44.696;10.358;2023-10-19T10:13:56;98925.06;;;19.78;100.00
74524;BME280;63074;44.696;10.358;2023-10-19T10:16:24;98928.16;;;18.77;100.00
74524;BME280;63074;44.696;10.358;2023-10-19T10:18:55;98924.03;;;18.88;100.00
74524;BME280;63074;44.696;10.358;2023-10-19T10:21:25;98914.75;;;18.89;100.00
74524;BME280;63074;44.696;10.358;2023-10-19T10:23:55;98925.22;;;19.21;100.00
74524;BME280;63074;44.696;10.358;2023-10-19T10:26:27;98934.19;;;19.22;100.00
74524;BME280;63074;44.696;10.358;2023-10-19T10:29:21;98920.25;;;19.23;100.00
74524;BME280;63074;44.696;10.358;2023-10-19T10:31:50;98917.53;;;19.41;100.00
74524;BME280;63074;44.696;10.358;2023-10-19T10:37:10;98912.53;;;18.43;100.00
74524;BME280;63074;44.696;10.358;2023-10-19T10:39:38;98899.44;;;19.28;100.00
74524;BME280;63074;44.696;10.358;2023-10-19T10:42:10;98905.97;;;18.44;100.00
74524;BME280;63074;44.696;10.358;2023-10-19T10:44:41;98908.88;;;19.13;100.00
74524;BME280;63074;44.696;10.358;2023-10-19T10:47:21;98913.63;;;18.73;100.00
74524;BME280;63074;44.696;10.358;2023-10-19T10:49:57;98906.22;;;18.65;100.00
74524;BME280;63074;44.696;10.358;2023-10-19T10:52:34;98878.25;;;17.49;100.00
74524;BME280;63074;44.696;10.358;2023-10-19T10:55:11;98870.97;;;17.80;100.00
74524;BME280;63074;44.696;10.358;2023-10-19T10:57:39;98873.16;;;18.01;100.00
74524;BME280;63074;44.696;10.358;2023-10-19T11:00:15;98872.78;;;17.94;100.00
74524;BME280;63074;44.696;10.358;2023-10-19T11:02:43;98871.78;;;18.20;100.00
74524;BME280;63074;44.696;10.358;2023-10-19T11:05:14;98868.50;;;17.70;100.00
74524;BME280;63074;44.696;10.358;2023-10-19T11:08:17;98869.19;;;18.07;100.00
74524;BME280;63074;44.696;10.358;2023-10-19T11:10:45;98872.81;;;17.27;100.00
74524;BME280;63074;44.696;10.358;2023-10-19T11:13:22;98873.06;;;17.61;100.00
74524;BME280;63074;44.696;10.358;2023-10-19T11:15:51;98868.78;;;18.31;100.00
74524;BME280;63074;44.696;10.358;2023-10-19T11:18:40;98860.34;;;18.01;100.00
74524;BME280;63074;44.696;10.358;2023-10-19T11:21:12;98859.00;;;17.59;100.00
74524;BME280;63074;44.696;10.358;2023-10-19T11:26:10;98850.41;;;18.76;100.00
74524;BME280;63074;44.696;10.358;2023-10-19T11:28:37;98827.84;;;19.01;100.00
74524;BME280;63074;44.696;10.358;2023-10-19T11:31:22;98840.22;;;18.50;100.00
74524;BME280;63074;44.696;10.358;2023-10-19T11:33:49;98834.38;;;19.26;100.00
74524;BME280;63074;44.696;10.358;2023-10-19T11:36:17;98839.19;;;19.29;100.00
74524;BME280;63074;44.696;10.358;2023-10-19T11:38:45;98826.69;;;19.54;100.00
74524;BME280;63074;44.696;10.358;2023-10-19T11:41:13;98815.16;;;18.88;100.00
74524;BME280;63074;44.696;10.358;2023-10-19T11:43:41;98812.69;;;18.52;100.00
74524;BME280;63074;44.696;10.358;2023-10-19T11:46:09;98803.25;;;18.49;100.00
74524;BME280;63074;44.696;10.358;2023-10-19T11:48:36;98794.94;;;18.54;100.00
74524;BME280;63074;44.696;10.358;2023-10-19T11:51:03;98809.41;;;19.07;100.00
74524;BME280;63074;44.696;10.358;2023-10-19T11:53:34;98816.13;;;18.75;100.00
74524;BME280;63074;44.696;10.358;2023-10-19T11:56:06;98807.00;;;19.22;100.00
74524;BME280;63074;44.696;10.358;2023-10-19T11:58:36;98805.88;;;19.06;100.00
74524;BME280;63074;44.696;10.358;2023-10-19T12:01:04;98812.28;;;19.19;100.00
74524;BME280;63074;44.696;10.358;2023-10-19T12:03:39;98792.25;;;19.23;100.00
74524;BME280;63074;44.696;10.358;2023-10-19T12:06:10;98779.63;;;18.93;100.00
74524;BME280;63074;44.696;10.358;2023-10-19T12:08:37;98804.91;;;19.19;100.00
74524;BME280;63074;44.696;10.358;2023-10-19T12:11:04;98817.25;;;19.26;100.00
74524;BME280;63074;44.696;10.358;2023-10-19T12:13:33;98812.75;;;19.12;100.00
74524;BME280;63074;44.696;10.358;2023-10-19T12:15:59;98812.44;;;18.62;100.00
74524;BME280;63074;44.696;10.358;2023-10-19T12:18:26;98797.53;;;19.20;100.00
74524;BME280;63074;44.696;10.358;2023-10-19T12:20:54;98798.34;;;19.20;100.00
74524;BME280;63074;44.696;10.358;2023-10-19T12:23:25;98804.13;;;19.02;100.00
74524;BME280;63074;44.696;10.358;2023-10-19T12:25:51;98830.53;;;18.18;100.00
74524;BME280;63074;44.696;10.358;2023-10-19T12:28:18;98806.94;;;18.45;100.00
74524;BME280;63074;44.696;10.358;2023-10-19T12:30:44;98785.22;;;18.05;100.00
74524;BME280;63074;44.696;10.358;2023-10-19T12:33:11;98776.47;;;18.26;100.00
74524;BME280;63074;44.696;10.358;2023-10-19T12:35:38;98773.00;;;18.42;100.00
74524;BME280;63074;44.696;10.358;2023-10-19T12:38:23;98776.09;;;18.84;100.00
74524;BME280;63074;44.696;10.358;2023-10-19T12:40:50;98764.41;;;18.83;100.00
74524;BME280;63074;44.696;10.358;2023-10-19T12:43:17;98761.22;;;18.81;100.00
74524;BME280;63074;44.696;10.358;2023-10-19T12:45:45;98760.47;;;18.24;100.00
74524;BME280;63074;44.696;10.358;2023-10-19T12:48:17;98769.50;;;19.28;100.00
74524;BME280;63074;44.696;10.358;2023-10-19T12:50:43;98769.13;;;18.26;100.00
74524;BME280;63074;44.696;10.358;2023-10-19T12:53:10;98779.63;;;18.93;100.00
74524;BME280;63074;44.696;10.358;2023-10-19T12:55:36;98777.41;;;19.04;100.00
74524;BME280;63074;44.696;10.358;2023-10-19T12:58:06;98775.13;;;18.80;100.00
74524;BME280;63074;44.696;10.358;2023-10-19T13:00:38;98774.34;;;18.79;100.00
74524;BME280;63074;44.696;10.358;2023-10-19T13:03:10;98785.25;;;18.71;100.00
74524;BME280;63074;44.696;10.358;2023-10-19T13:05:40;98794.78;;;19.37;100.00